createdAt,value
2022-11-20T00:01:19.944Z,96597.19
2022-11-20T00:03:47.279Z,96599.31
2022-11-20T00:06:19.052Z,96594.72
2022-11-20T00:08:46.848Z,96606.19
2022-11-20T00:11:16.428Z,96609.56
2022-11-20T00:13:44.595Z,96608.75
2022-11-20T00:16:14.209Z,96616.94
2022-11-20T00:18:41.055Z,96620.88
2022-11-20T00:21:12.706Z,96620.63
2022-11-20T00:23:39.665Z,96618.06
2022-11-20T00:26:08.788Z,96619.69
2022-11-20T00:28:35.963Z,96630.53
2022-11-20T00:31:07.486Z,96631.78
2022-11-20T00:33:34.129Z,96627.28
2022-11-20T00:36:07.612Z,96633.84
2022-11-20T00:38:35.144Z,96635.91
2022-11-20T00:41:05.902Z,96642.84
2022-11-20T00:43:32.548Z,96639.34
2022-11-20T00:46:04.991Z,96640.47
2022-11-20T00:48:32.043Z,96645.72
2022-11-20T00:50:59.120Z,96644.69
2022-11-20T00:53:25.996Z,96650.13
2022-11-20T00:56:01.297Z,96659.16
2022-11-20T00:58:36.644Z,96650.88
2022-11-20T01:01:07.737Z,96656.28
2022-11-20T01:03:36.556Z,96655.25
2022-11-20T01:06:06.258Z,96656.78
2022-11-20T01:08:35.394Z,96659.78
2022-11-20T01:11:05.062Z,96659.00
2022-11-20T01:13:33.090Z,96659.13
2022-11-20T01:16:07.500Z,96664.63
2022-11-20T01:18:35.303Z,96665.25
2022-11-20T01:21:24.883Z,96665.22
2022-11-20T01:23:52.770Z,96668.34
2022-11-20T01:26:25.307Z,96663.78
2022-11-20T01:28:52.417Z,96667.47
2022-11-20T01:31:24.558Z,96664.94
2022-11-20T01:33:54.168Z,96660.69
2022-11-20T01:36:22.841Z,96663.09
2022-11-20T01:38:52.855Z,96670.72
2022-11-20T01:41:19.870Z,96668.50
2022-11-20T01:43:46.405Z,96669.50
2022-11-20T01:46:20.515Z,96673.22
2022-11-20T01:49:16.989Z,96671.56
2022-11-20T01:51:51.555Z,96673.63
2022-11-20T01:54:24.699Z,96670.03
2022-11-20T01:56:58.474Z,96671.13
2022-11-20T01:59:28.016Z,96667.56
2022-11-20T02:01:55.272Z,96669.97
2022-11-20T02:04:24.070Z,96674.53
2022-11-20T02:07:01.358Z,96677.81
2022-11-20T02:09:29.224Z,96673.81
2022-11-20T02:11:57.096Z,96681.88
2022-11-20T02:14:25.377Z,96675.44
2022-11-20T02:16:53.061Z,96679.19
2022-11-20T02:19:32.440Z,96680.59
2022-11-20T02:22:07.985Z,96676.56
2022-11-20T02:24:35.338Z,96686.59
2022-11-20T02:27:10.905Z,96688.78
2022-11-20T02:29:51.515Z,96685.38
2022-11-20T02:32:36.621Z,96689.94
2022-11-20T02:35:21.159Z,96691.28
2022-11-20T02:37:57.221Z,96693.97
2022-11-20T02:40:24.652Z,96694.88
2022-11-20T02:42:57.938Z,96697.31
2022-11-20T02:45:25.934Z,96691.75
2022-11-20T02:47:53.288Z,96689.28
2022-11-20T02:50:19.957Z,96689.28
2022-11-20T02:52:46.521Z,96688.56
2022-11-20T02:55:13.318Z,96691.72
2022-11-20T02:57:39.901Z,96693.78
2022-11-20T03:00:07.190Z,96694.63
2022-11-20T03:02:34.070Z,96693.28
2022-11-20T03:05:00.649Z,96694.09
2022-11-20T03:07:27.245Z,96693.28
2022-11-20T03:09:53.882Z,96694.34
2022-11-20T03:12:20.464Z,96702.53
2022-11-20T03:14:52.628Z,96698.81
2022-11-20T03:17:19.717Z,96700.25
2022-11-20T03:19:46.252Z,96697.91
2022-11-20T03:22:12.821Z,96705.19
2022-11-20T03:24:39.457Z,96705.22
2022-11-20T03:27:06.025Z,96705.59
2022-11-20T03:29:32.573Z,96701.81
2022-11-20T03:31:59.128Z,96703.41
2022-11-20T03:34:25.649Z,96699.56
2022-11-20T03:36:52.216Z,96700.94
2022-11-20T03:39:18.857Z,96701.31
2022-11-20T03:41:45.482Z,96695.66
2022-11-20T03:44:13.186Z,96701.78
2022-11-20T03:46:40.010Z,96701.03
2022-11-20T03:49:06.910Z,96702.34
2022-11-20T03:51:35.839Z,96708.69
2022-11-20T03:54:06.328Z,96707.44
2022-11-20T03:56:37.346Z,96712.13
2022-11-20T03:59:04.750Z,96709.78
2022-11-20T04:01:34.734Z,96703.16
2022-11-20T04:04:01.415Z,96708.72
2022-11-20T04:06:31.863Z,96712.41
2022-11-20T04:08:59.494Z,96711.63
2022-11-20T04:11:31.710Z,96710.56
2022-11-20T04:14:04.478Z,96701.06
2022-11-20T04:16:33.998Z,96711.16
2022-11-20T04:19:03.301Z,96711.16
2022-11-20T04:21:30.127Z,96703.19
2022-11-20T04:23:57.468Z,96694.72
2022-11-20T04:26:27.197Z,96697.06
2022-11-20T04:28:54.090Z,96698.88
2022-11-20T04:31:23.808Z,96695.50
2022-11-20T04:33:50.841Z,96701.03
2022-11-20T04:36:20.852Z,96702.13
2022-11-20T04:38:55.413Z,96708.50
2022-11-20T04:41:26.085Z,96699.72
2022-11-20T04:43:55.736Z,96702.06
2022-11-20T04:46:22.346Z,96699.63
2022-11-20T04:48:51.282Z,96698.09
2022-11-20T04:51:17.993Z,96703.84
2022-11-20T04:53:44.692Z,96706.25
2022-11-20T04:56:12.949Z,96701.28
2022-11-20T04:58:40.538Z,96706.28
2022-11-20T05:01:14.186Z,96700.78
2022-11-20T05:03:42.877Z,96707.09
2022-11-20T05:06:12.031Z,96707.09
2022-11-20T05:08:38.858Z,96713.44
2022-11-20T05:11:17.077Z,96712.13
2022-11-20T05:13:43.687Z,96714.53
2022-11-20T05:16:16.640Z,96721.16
2022-11-20T05:18:43.722Z,96723.31
2022-11-20T05:21:11.792Z,96724.34
2022-11-20T05:23:39.291Z,96720.69
2022-11-20T05:26:08.197Z,96711.38
2022-11-20T05:28:35.308Z,96712.72
2022-11-20T05:31:10.405Z,96710.09
2022-11-20T05:33:37.532Z,96706.38
2022-11-20T05:36:05.238Z,96711.13
2022-11-20T05:38:32.583Z,96714.81
2022-11-20T05:41:09.626Z,96722.00
2022-11-20T05:43:37.674Z,96721.22
2022-11-20T05:46:05.474Z,96719.09
2022-11-20T05:48:33.335Z,96726.78
2022-11-20T05:51:01.946Z,96729.69
2022-11-20T05:53:29.127Z,96730.47
2022-11-20T05:56:19.366Z,96722.22
2022-11-20T05:58:46.943Z,96725.41
2022-11-20T06:01:20.446Z,96726.22
2022-11-20T06:03:47.873Z,96717.22
2022-11-20T06:06:16.439Z,96721.72
2022-11-20T06:08:44.553Z,96724.63
2022-11-20T06:11:13.472Z,96726.00
2022-11-20T06:13:42.388Z,96723.09
2022-11-20T06:16:10.974Z,96726.78
2022-11-20T06:18:37.919Z,96726.53
2022-11-20T06:21:08.051Z,96726.25
2022-11-20T06:23:35.826Z,96732.63
2022-11-20T06:26:14.744Z,96727.59
2022-11-20T06:28:41.297Z,96728.38
2022-11-20T06:31:08.710Z,96722.56
2022-11-20T06:33:35.389Z,96725.22
2022-11-20T06:36:07.427Z,96715.91
2022-11-20T06:38:37.428Z,96723.06
2022-11-20T06:41:05.820Z,96716.19
2022-11-20T06:43:32.362Z,96715.91
2022-11-20T06:46:00.288Z,96719.09
2022-11-20T06:48:28.792Z,96723.34
2022-11-20T06:50:55.421Z,96725.72
2022-11-20T06:53:22.790Z,96728.63
2022-11-20T06:55:49.979Z,96729.94
2022-11-20T06:58:18.070Z,96734.22
2022-11-20T07:00:44.979Z,96736.88
2022-11-20T07:03:12.648Z,96738.97
2022-11-20T07:05:39.698Z,96746.66
2022-11-20T07:08:06.338Z,96740.06
2022-11-20T07:10:33.588Z,96740.59
2022-11-20T07:13:00.404Z,96743.47
2022-11-20T07:15:27.510Z,96748.78
2022-11-20T07:17:54.112Z,96749.84
2022-11-20T07:20:20.862Z,96753.31
2022-11-20T07:22:47.459Z,96755.69
2022-11-20T07:25:13.993Z,96762.03
2022-11-20T07:27:40.582Z,96758.34
2022-11-20T07:30:07.754Z,96760.19
2022-11-20T07:32:34.333Z,96767.06
2022-11-20T07:35:00.916Z,96771.06
2022-11-20T07:37:27.480Z,96774.75
2022-11-20T07:39:54.055Z,96766.31
2022-11-20T07:42:20.654Z,96768.94
2022-11-20T07:44:47.236Z,96766.03
2022-11-20T07:47:13.816Z,96761.00
2022-11-20T07:49:40.407Z,96768.69
2022-11-20T07:52:06.938Z,96769.72
2022-11-20T07:54:33.477Z,96760.72
2022-11-20T07:57:00.094Z,96761.69
2022-11-20T07:59:26.644Z,96768.31
2022-11-20T08:01:53.271Z,96767.22
2022-11-20T08:04:19.858Z,96777.38
2022-11-20T08:06:46.392Z,96770.41
2022-11-20T08:09:12.929Z,96780.19
2022-11-20T08:11:39.457Z,96773.78
2022-11-20T08:14:06.027Z,96775.97
2022-11-20T08:16:32.585Z,96776.88
2022-11-20T08:18:59.152Z,96773.59
2022-11-20T08:21:25.726Z,96770.72
2022-11-20T08:23:52.744Z,96778.47
2022-11-20T08:26:19.404Z,96772.31
2022-11-20T08:28:45.994Z,96780.63
2022-11-20T08:31:12.552Z,96770.34
2022-11-20T08:33:39.129Z,96778.69
2022-11-20T08:36:06.468Z,96778.19
2022-11-20T08:38:33.462Z,96782.38
2022-11-20T08:41:02.117Z,96779.88
2022-11-20T08:43:28.734Z,96777.69
2022-11-20T08:45:57.870Z,96778.34
2022-11-20T08:48:24.414Z,96786.84
2022-11-20T08:50:51.027Z,96785.53
2022-11-20T08:53:17.670Z,96784.81
2022-11-20T08:55:44.212Z,96785.47
2022-11-20T08:58:10.750Z,96793.91
2022-11-20T09:00:37.367Z,96792.28
2022-11-20T09:03:04.376Z,96786.59
2022-11-20T09:05:30.945Z,96782.41
2022-11-20T09:07:58.872Z,96797.81
2022-11-20T09:10:25.774Z,96789.09
2022-11-20T09:12:53.370Z,96792.06
2022-11-20T09:15:20.621Z,96786.28
2022-11-20T09:18:00.629Z,96797.31
2022-11-20T09:20:28.990Z,96805.91
2022-11-20T09:22:56.637Z,96799.44
2022-11-20T09:25:23.292Z,96797.28
2022-11-20T09:27:56.271Z,96801.47
2022-11-20T09:30:22.817Z,96795.72
2022-11-20T09:32:49.407Z,96791.69
2022-11-20T09:35:16.050Z,96788.63
2022-11-20T09:37:42.572Z,96800.25
2022-11-20T09:40:29.479Z,96790.84
2022-11-20T09:43:08.573Z,96806.59
2022-11-20T09:46:04.341Z,96806.53
2022-11-20T09:48:58.217Z,96801.31
2022-11-20T09:51:39.253Z,96804.63
2022-11-20T09:54:17.583Z,96798.38
2022-11-20T09:56:51.292Z,96791.34
2022-11-20T09:59:40.931Z,96800.25
2022-11-20T10:02:29.186Z,96804.56
2022-11-20T10:05:11.564Z,96802.66
2022-11-20T10:07:52.624Z,96802.69
2022-11-20T10:10:31.964Z,96812.25
2022-11-20T10:13:20.688Z,96806.72
2022-11-20T10:16:08.875Z,96801.72
2022-11-20T10:19:03.732Z,96798.78
2022-11-20T10:21:55.301Z,96800.25
2022-11-20T10:24:27.698Z,96793.28
2022-11-20T10:27:16.153Z,96784.75
2022-11-20T10:29:54.356Z,96791.63
2022-11-20T10:32:35.875Z,96804.28
2022-11-20T10:35:27.557Z,96792.88
2022-11-20T10:38:06.372Z,96789.97
2022-11-20T10:40:41.131Z,96797.41
2022-11-20T10:43:29.228Z,96795.97
2022-11-20T10:46:15.759Z,96793.75
2022-11-20T10:48:46.055Z,96800.50
2022-11-20T10:51:50.090Z,96793.44
2022-11-20T10:54:31.600Z,96790.50
2022-11-20T10:57:27.215Z,96780.50
2022-11-20T11:00:15.151Z,96778.88
2022-11-20T11:02:55.653Z,96775.78
2022-11-20T11:05:34.751Z,96761.84
2022-11-20T11:08:01.856Z,96761.81
2022-11-20T11:10:52.267Z,96758.31
2022-11-20T11:13:26.211Z,96757.69
2022-11-20T11:15:53.650Z,96755.72
2022-11-20T11:18:32.725Z,96754.97
2022-11-20T11:21:03.176Z,96754.63
2022-11-20T11:23:32.120Z,96751.31
2022-11-20T11:26:01.181Z,96740.50
2022-11-20T11:28:29.045Z,96727.72
2022-11-20T11:30:56.736Z,96720.72
2022-11-20T11:33:29.118Z,96700.13
2022-11-20T11:36:17.530Z,96698.88
2022-11-20T11:38:45.323Z,96706.44
2022-11-20T11:41:23.802Z,96691.16
2022-11-20T11:43:55.258Z,96689.63
2022-11-20T11:46:21.779Z,96693.72
2022-11-20T11:49:02.013Z,96677.19
2022-11-20T12:02:26.635Z,96653.22
2022-11-20T12:05:09.645Z,96651.84
2022-11-20T12:07:47.144Z,96648.53
2022-11-20T12:10:30.958Z,96643.41
2022-11-20T12:13:05.210Z,96631.38
2022-11-20T12:15:35.054Z,96622.13
2022-11-20T12:22:07.459Z,96644.91
2022-11-20T12:24:59.013Z,96638.50
2022-11-20T12:28:03.237Z,96638.13
2022-11-20T12:30:39.457Z,96636.50
2022-11-20T12:33:14.933Z,96639.97
2022-11-20T12:35:59.703Z,96620.78
2022-11-20T12:38:57.287Z,96609.09
2022-11-20T12:41:29.703Z,96610.75
2022-11-20T12:44:17.244Z,96608.31
2022-11-20T12:46:53.032Z,96614.66
2022-11-20T12:49:50.043Z,96611.91
2022-11-20T12:52:25.677Z,96612.13
2022-11-20T12:55:16.809Z,96625.84
2022-11-20T12:58:05.224Z,96625.66
2022-11-20T13:00:34.536Z,96625.66
2022-11-20T13:03:10.180Z,96619.03
2022-11-20T13:05:55.794Z,96624.50
2022-11-20T13:08:34.424Z,96621.53
2022-11-20T13:11:05.375Z,96617.38
2022-11-20T13:13:57.370Z,96609.47
2022-11-20T13:16:35.536Z,96615.44
2022-11-20T13:19:05.471Z,96608.94
2022-11-20T13:21:47.133Z,96615.84
2022-11-20T13:24:19.760Z,96612.75
2022-11-20T13:26:47.557Z,96616.28
2022-11-20T13:29:19.718Z,96607.50
2022-11-20T13:31:48.899Z,96606.09
2022-11-20T13:34:27.106Z,96592.34
2022-11-20T13:37:00.087Z,96579.00
2022-11-20T13:39:31.087Z,96580.69
2022-11-20T13:42:12.540Z,96568.38
2022-11-20T13:44:45.154Z,96576.31
2022-11-20T13:47:22.361Z,96563.09
2022-11-20T13:49:49.239Z,96568.41
2022-11-20T13:52:39.993Z,96559.56
2022-11-20T13:55:38.569Z,96569.50
2022-11-20T13:58:20.143Z,96573.53
2022-11-20T14:01:10.126Z,96571.16
2022-11-20T14:04:04.437Z,96569.47
2022-11-20T14:06:27.032Z,96571.88
2022-11-20T14:08:54.749Z,96569.56
2022-11-20T14:11:29.275Z,96563.44
2022-11-20T14:14:03.038Z,96563.22
2022-11-20T14:16:38.010Z,96559.03
2022-11-20T14:19:22.791Z,96548.44
2022-11-20T14:21:55.729Z,96537.59
2022-11-20T14:24:25.452Z,96521.53
2022-11-20T14:26:53.136Z,96518.81
2022-11-20T14:29:26.433Z,96525.09
2022-11-20T14:31:56.487Z,96526.63
2022-11-20T14:34:29.990Z,96534.00
2022-11-20T14:37:02.400Z,96532.69
2022-11-20T14:39:35.791Z,96538.75
2022-11-20T14:42:02.714Z,96532.56
2022-11-20T14:44:38.757Z,96533.41
2022-11-20T14:47:06.023Z,96531.31
2022-11-20T14:49:33.721Z,96524.63
2022-11-20T14:52:03.596Z,96518.28
2022-11-20T14:54:30.269Z,96518.66
2022-11-20T14:56:59.150Z,96517.94
